Time;durP1;ratioP1;P1;durP2;ratioP2;P2;SDS_P1;SDS_P2;PMS_P1;PMS_P2;Temp;Humidity;BMP_temperature;BMP_pressure;BME280_temperature;BME280_humidity;BME280_pressure;Samples;Min_cycle;Max_cycle;Signal;HPM_P1;HPM_P2
2021/08/30 00:00:16;;;;;;;;;;;;;;;15.50;100.00;99799.27;1757485;81;20167;-85
2021/08/30 00:02:42;;;;;;;;;;;;;;;15.46;100.00;99801.19;1757555;81;20144;-85
2021/08/30 00:05:10;;;;;;;;;;;;;;;15.39;100.00;99799.31;1757602;80;20528;-83
2021/08/30 00:07:42;;;;;;;;;;;;;;;15.32;100.00;99803.80;1757632;81;20155;-88
2021/08/30 00:10:08;;;;;;;;;;;;;;;15.25;100.00;99794.94;1758339;81;20346;-86
2021/08/30 00:12:39;;;;;;;;;;;;;;;15.23;100.00;99807.62;1758364;80;20163;-85
2021/08/30 00:15:01;;;;;;;;;;;;;;;15.17;100.00;99803.08;1758510;81;20171;-84
2021/08/30 00:17:29;;;;;;;;;;;;;;;15.13;100.00;99801.81;1758646;81;20131;-85
2021/08/30 00:19:54;;;;;;;;;;;;;;;15.07;100.00;99796.27;1758340;81;20143;-85
2021/08/30 00:22:20;;;;;;;;;;;;;;;15.02;100.00;99797.85;1758542;81;21298;-85
2021/08/30 00:24:45;;;;;;;;;;;;;;;15.01;100.00;99798.89;1758648;81;20174;-84
2021/08/30 00:27:11;;;;;;;;;;;;;;;15.00;100.00;99798.05;1758794;80;20152;-85
2021/08/30 00:29:37;;;;;;;;;;;;;;;15.06;100.00;99802.59;1758598;80;20566;-85
2021/08/30 00:32:03;;;;;;;;;;;;;;;15.16;100.00;99801.42;1758521;81;20210;-86
2021/08/30 00:34:28;;;;;;;;;;;;;;;15.20;100.00;99805.35;1772377;81;21317;-91
2021/08/30 00:36:54;;;;;;;;;;;;;;;15.21;100.00;99806.97;1789817;80;20532;-91
2021/08/30 00:39:21;;;;;;;;;;;;;;;15.23;99.54;99812.94;1760994;81;20402;-91
2021/08/30 00:41:49;;;;;;;;;;;;;;;15.16;99.51;99806.75;1754654;81;20201;-91
2021/08/30 00:44:15;;;;;;;;;;;;;;;15.15;99.51;99805.94;1755355;81;20332;-90
2021/08/30 00:46:41;;;;;;;;;;;;;;;15.18;99.31;99810.02;1755217;80;21092;-90
2021/08/30 00:49:06;;;;;;;;;;;;;;;15.15;99.13;99813.07;1755098;81;20308;-91
2021/08/30 00:51:32;;;;;;;;;;;;;;;15.10;99.41;99810.18;1755541;81;20157;-91
2021/08/30 00:53:58;;;;;;;;;;;;;;;14.94;100.00;99802.81;1755181;81;20169;-90
2021/08/30 00:56:27;;;;;;;;;;;;;;;14.87;100.00;99797.97;1755129;81;20216;-90
2021/08/30 00:58:53;;;;;;;;;;;;;;;14.85;100.00;99801.30;1730157;81;21214;-90
2021/08/30 01:01:19;;;;;;;;;;;;;;;14.79;100.00;99798.09;1755151;81;20193;-91
2021/08/30 01:03:44;;;;;;;;;;;;;;;14.86;100.00;99793.66;1755122;81;20182;-90
2021/08/30 01:06:22;;;;;;;;;;;;;;;14.85;100.00;99785.36;1729391;81;20289;-91
2021/08/30 01:08:58;;;;;;;;;;;;;;;14.83;100.00;99794.04;1755532;81;20559;-90
2021/08/30 01:11:23;;;;;;;;;;;;;;;14.80;100.00;99786.45;1754517;81;21009;-90
2021/08/30 01:13:54;;;;;;;;;;;;;;;14.71;100.00;99786.59;1729633;81;20188;-89
2021/08/30 01:16:20;;;;;;;;;;;;;;;14.75;100.00;99775.58;1751153;81;20162;-89
2021/08/30 01:18:47;;;;;;;;;;;;;;;14.80;100.00;99778.48;1729199;81;20711;-86
2021/08/30 01:21:22;;;;;;;;;;;;;;;14.83;100.00;99776.24;1755157;81;20202;-86
2021/08/30 01:23:51;;;;;;;;;;;;;;;14.85;100.00;99780.04;1755034;81;21133;-87
2021/08/30 01:26:18;;;;;;;;;;;;;;;14.85;100.00;99771.58;1754720;81;20193;-87
2021/08/30 01:28:50;;;;;;;;;;;;;;;14.88;100.00;99783.64;1755023;81;20185;-86
2021/08/30 01:31:19;;;;;;;;;;;;;;;14.84;100.00;99783.73;1753784;81;20234;-86
2021/08/30 01:33:46;;;;;;;;;;;;;;;14.85;100.00;99781.37;1754396;81;20261;-86
2021/08/30 01:36:12;;;;;;;;;;;;;;;14.87;100.00;99782.02;1754796;81;22071;-86
2021/08/30 01:38:39;;;;;;;;;;;;;;;14.90;100.00;99776.31;1754799;81;20178;-87
2021/08/30 01:41:05;;;;;;;;;;;;;;;14.94;100.00;99785.52;1754708;81;20190;-86
2021/08/30 01:43:30;;;;;;;;;;;;;;;14.92;100.00;99776.93;1755355;81;20612;-86
2021/08/30 01:45:56;;;;;;;;;;;;;;;14.84;100.00;99777.09;1755201;81;20469;-86
2021/08/30 01:48:21;;;;;;;;;;;;;;;14.77;100.00;99777.53;1755065;81;21084;-86
2021/08/30 01:50:47;;;;;;;;;;;;;;;14.64;100.00;99783.57;1755209;81;20218;-86
2021/08/30 01:53:13;;;;;;;;;;;;;;;14.56;100.00;99783.16;1755290;81;20177;-86
2021/08/30 01:55:47;;;;;;;;;;;;;;;14.52;100.00;99788.02;1755191;81;20590;-86
2021/08/30 02:00:47;;;;;;;;;;;;;;;14.42;100.00;99777.40;1753976;81;20166;-87
2021/08/30 02:03:21;;;;;;;;;;;;;;;14.36;100.00;99767.86;1728542;81;20351;-87
2021/08/30 02:05:49;;;;;;;;;;;;;;;14.33;100.00;99768.23;1754488;81;20198;-85
2021/08/30 02:08:15;;;;;;;;;;;;;;;14.43;100.00;99767.09;1754243;81;20177;-88
2021/08/30 02:10:43;;;;;;;;;;;;;;;14.48;100.00;99764.68;1753967;81;20332;-85
2021/08/30 02:13:09;;;;;;;;;;;;;;;14.52;100.00;99768.61;1753485;81;21142;-85
2021/08/30 02:15:34;;;;;;;;;;;;;;;14.49;100.00;99763.67;1754133;81;20491;-85
2021/08/30 02:18:02;;;;;;;;;;;;;;;14.54;100.00;99761.26;1753962;81;20209;-85
2021/08/30 02:20:29;;;;;;;;;;;;;;;14.61;100.00;99756.86;1754037;81;20519;-85
2021/08/30 02:22:56;;;;;;;;;;;;;;;14.61;100.00;99756.86;1754379;81;20202;-85
2021/08/30 02:25:22;;;;;;;;;;;;;;;14.39;100.00;99751.21;1753892;81;20625;-85
2021/08/30 02:27:51;;;;;;;;;;;;;;;14.29;100.00;99759.02;1754141;81;20197;-85
2021/08/30 02:30:29;;;;;;;;;;;;;;;14.25;100.00;99751.63;1754145;81;20197;-85
2021/08/30 02:32:57;;;;;;;;;;;;;;;14.16;100.00;99740.30;1754116;81;20190;-85
2021/08/30 02:35:24;;;;;;;;;;;;;;;14.12;100.00;99735.03;1754253;81;20201;-84
2021/08/30 02:37:53;;;;;;;;;;;;;;;14.09;100.00;99732.76;1728505;81;21088;-84
2021/08/30 02:40:18;;;;;;;;;;;;;;;14.13;100.00;99727.40;1733526;80;20157;-84
2021/08/30 02:42:44;;;;;;;;;;;;;;;14.18;100.00;99732.95;1766087;81;20216;-83
2021/08/30 02:45:10;;;;;;;;;;;;;;;14.20;100.00;99730.95;1735740;81;20579;-83
2021/08/30 02:47:36;;;;;;;;;;;;;;;14.15;100.00;99733.33;1765883;81;20584;-83
2021/08/30 02:50:03;;;;;;;;;;;;;;;14.08;100.00;99733.80;1766082;81;21100;-83
2021/08/30 02:52:31;;;;;;;;;;;;;;;14.03;100.00;99733.03;1765232;81;20303;-83
2021/08/30 02:54:57;;;;;;;;;;;;;;;14.05;100.00;99730.19;1766015;81;20153;-83
2021/08/30 02:57:22;;;;;;;;;;;;;;;14.06;100.00;99734.47;1765941;81;20327;-83
2021/08/30 02:59:50;;;;;;;;;;;;;;;14.06;100.00;99732.66;1766448;81;20490;-83
2021/08/30 03:02:16;;;;;;;;;;;;;;;14.05;100.00;99740.80;1766065;81;20659;-83
2021/08/30 03:04:42;;;;;;;;;;;;;;;14.04;100.00;99729.34;1765703;81;20215;-83
2021/08/30 03:07:07;;;;;;;;;;;;;;;14.09;100.00;99724.31;1765919;81;20172;-84
2021/08/30 03:09:33;;;;;;;;;;;;;;;14.15;100.00;99728.86;1765972;81;20245;-84
2021/08/30 03:12:00;;;;;;;;;;;;;;;14.21;100.00;99739.21;1766151;81;20161;-84
2021/08/30 03:14:26;;;;;;;;;;;;;;;14.28;100.00;99736.64;1766294;81;21887;-85
2021/08/30 03:16:59;;;;;;;;;;;;;;;14.32;100.00;99745.33;1765995;81;20169;-84
2021/08/30 03:19:25;;;;;;;;;;;;;;;14.33;100.00;99743.52;1765346;81;20384;-86
2021/08/30 03:21:50;;;;;;;;;;;;;;;14.38;100.00;99736.31;1765838;81;20409;-86
2021/08/30 03:24:19;;;;;;;;;;;;;;;14.41;100.00;99734.59;1766254;81;20347;-87
2021/08/30 03:26:46;;;;;;;;;;;;;;;14.39;100.00;99731.29;1765908;81;20999;-86
2021/08/30 03:29:11;;;;;;;;;;;;;;;14.27;100.00;99736.31;1735756;81;20218;-86
2021/08/30 03:31:37;;;;;;;;;;;;;;;14.20;100.00;99734.94;1766158;81;20173;-87
2021/08/30 03:34:03;;;;;;;;;;;;;;;14.15;100.00;99746.61;1765693;81;20337;-85
2021/08/30 03:36:28;;;;;;;;;;;;;;;14.10;100.00;99738.40;1767671;81;20157;-85
2021/08/30 03:38:56;;;;;;;;;;;;;;;14.08;100.00;99744.41;1767148;81;21066;-86
2021/08/30 03:41:21;;;;;;;;;;;;;;;14.05;100.00;99736.83;1766711;81;20364;-86
2021/08/30 03:43:47;;;;;;;;;;;;;;;14.05;100.00;99748.77;1766829;81;20217;-86
2021/08/30 03:46:12;;;;;;;;;;;;;;;13.99;100.00;99743.19;1766699;81;20165;-86
2021/08/30 03:48:39;;;;;;;;;;;;;;;13.94;100.00;99744.27;1766707;81;20189;-87
2021/08/30 03:51:07;;;;;;;;;;;;;;;13.94;100.00;99744.78;1767015;81;21823;-86
2021/08/30 03:53:34;;;;;;;;;;;;;;;13.95;100.00;99743.27;1766688;81;20169;-86
2021/08/30 03:56:00;;;;;;;;;;;;;;;13.94;100.00;99736.30;1766551;81;20315;-84
2021/08/30 03:58:27;;;;;;;;;;;;;;;13.98;100.00;99742.89;1766280;81;20479;-84
2021/08/30 04:00:55;;;;;;;;;;;;;;;13.94;100.00;99744.27;1765785;81;20765;-84
2021/08/30 04:03:21;;;;;;;;;;;;;;;14.00;100.00;99747.50;1766385;81;21081;-84
2021/08/30 04:05:48;;;;;;;;;;;;;;;14.05;100.00;99746.12;1766122;81;20157;-84
2021/08/30 04:08:14;;;;;;;;;;;;;;;14.11;100.00;99747.50;1766126;81;20148;-84
2021/08/30 04:10:39;;;;;;;;;;;;;;;14.20;100.00;99753.52;1735683;81;20165;-84
2021/08/30 04:13:05;;;;;;;;;;;;;;;14.30;100.00;99751.87;1766321;81;20222;-89
2021/08/30 04:15:31;;;;;;;;;;;;;;;14.38;100.00;99753.58;1766167;81;21080;-87
2021/08/30 04:17:56;;;;;;;;;;;;;;;14.39;100.00;99751.21;1766063;81;20161;-87
2021/08/30 04:20:22;;;;;;;;;;;;;;;14.35;100.00;99747.61;1766436;81;20256;-87
2021/08/30 04:22:47;;;;;;;;;;;;;;;14.29;100.00;99741.77;1766251;81;20153;-87
2021/08/30 04:25:13;;;;;;;;;;;;;;;14.28;100.00;99746.75;1766416;81;20189;-86
2021/08/30 04:27:39;;;;;;;;;;;;;;;14.40;100.00;99740.91;1766344;81;21183;-85
2021/08/30 04:30:06;;;;;;;;;;;;;;;14.37;100.00;99744.77;1766214;81;20189;-85
2021/08/30 04:32:34;;;;;;;;;;;;;;;14.34;100.00;99736.69;1766300;81;20142;-86
2021/08/30 04:34:59;;;;;;;;;;;;;;;14.35;100.00;99742.30;1765707;81;20660;-87
2021/08/30 04:37:25;;;;;;;;;;;;;;;14.42;100.00;99744.19;1766081;81;20220;-85
2021/08/30 04:39:50;;;;;;;;;;;;;;;14.52;100.00;99748.16;1765973;81;21054;-85
2021/08/30 04:42:16;;;;;;;;;;;;;;;14.59;100.00;99744.74;1766245;81;20336;-85
2021/08/30 04:44:41;;;;;;;;;;;;;;;14.66;100.00;99743.00;1766274;81;20173;-85
2021/08/30 04:47:07;;;;;;;;;;;;;;;14.65;100.00;99748.83;1766327;81;20153;-85
2021/08/30 04:49:33;;;;;;;;;;;;;;;14.70;100.00;99751.72;1766144;81;20419;-85
2021/08/30 04:51:58;;;;;;;;;;;;;;;14.75;100.00;99751.66;1766127;81;21034;-85
2021/08/30 04:54:24;;;;;;;;;;;;;;;14.80;100.00;99754.55;1765951;81;20184;-85
2021/08/30 04:56:50;;;;;;;;;;;;;;;14.89;100.00;99754.72;1766060;81;20201;-85
2021/08/30 04:59:15;;;;;;;;;;;;;;;14.95;100.00;99749.95;1766033;81;20750;-85
2021/08/30 05:01:41;;;;;;;;;;;;;;;15.02;100.00;99753.48;1766015;81;20173;-85
2021/08/30 05:04:06;;;;;;;;;;;;;;;15.12;100.00;99746.97;1766065;81;21136;-85
2021/08/30 05:06:32;;;;;;;;;;;;;;;15.15;100.00;99747.42;1766084;81;20884;-84
2021/08/30 05:08:58;;;;;;;;;;;;;;;15.06;100.00;99742.75;1765842;81;20176;-85
2021/08/30 05:11:23;;;;;;;;;;;;;;;15.06;100.00;99736.11;1765914;81;20165;-85
2021/08/30 05:13:51;;;;;;;;;;;;;;;15.07;100.00;99743.08;1765981;81;20173;-85
2021/08/30 05:16:16;;;;;;;;;;;;;;;15.17;100.00;99736.59;1765869;81;21927;-85
2021/08/30 05:18:42;;;;;;;;;;;;;;;15.22;100.00;99738.14;1765855;81;20173;-85
2021/08/30 05:21:08;;;;;;;;;;;;;;;15.28;100.00;99737.35;1765718;81;20188;-88
2021/08/30 05:23:34;;;;;;;;;;;;;;;15.28;100.00;99737.35;1765888;81;20641;-87
2021/08/30 05:25:59;;;;;;;;;;;;;;;15.29;100.00;99743.00;1765746;81;20511;-88
2021/08/30 05:28:25;;;;;;;;;;;;;;;15.28;100.00;99747.99;1765882;81;21150;-88
2021/08/30 05:30:51;;;;;;;;;;;;;;;15.30;100.00;99748.61;1765852;81;20161;-87
2021/08/30 05:33:18;;;;;;;;;;;;;;;15.31;100.00;99743.61;1765921;81;20398;-89
2021/08/30 05:35:44;;;;;;;;;;;;;;;15.31;100.00;99743.61;1765854;81;20336;-86
2021/08/30 05:38:09;;;;;;;;;;;;;;;15.39;100.00;99746.62;1765983;81;20173;-86
2021/08/30 05:40:35;;;;;;;;;;;;;;;15.47;100.00;99744.30;1760816;81;21103;-86
2021/08/30 05:43:00;;;;;;;;;;;;;;;15.48;100.00;99747.28;1753883;81;20213;-88
2021/08/30 05:45:27;;;;;;;;;;;;;;;15.56;100.00;99753.75;1754153;81;20177;-87
2021/08/30 05:47:53;;;;;;;;;;;;;;;15.58;100.00;99752.55;1753885;81;20333;-86
2021/08/30 05:50:18;;;;;;;;;;;;;;;15.58;100.00;99751.70;1754106;80;20645;-85
2021/08/30 05:52:57;;;;;;;;;;;;;;;15.60;100.00;99747.02;1754721;80;21201;-87
2021/08/30 05:55:37;;;;;;;;;;;;;;;15.64;100.00;99745.59;1754206;81;20198;-92
2021/08/30 05:58:02;;;;;;;;;;;;;;;15.63;100.00;99739.97;1753907;81;20249;-87
2021/08/30 06:00:29;;;;;;;;;;;;;;;15.66;100.00;99743.56;1754122;81;20813;-89
2021/08/30 06:02:57;;;;;;;;;;;;;;;15.59;100.00;99742.19;1728151;81;20213;-86
2021/08/30 06:05:22;;;;;;;;;;;;;;;15.59;100.00;99743.52;1754201;81;21941;-86
2021/08/30 06:07:48;;;;;;;;;;;;;;;15.58;100.00;99746.38;1754090;81;20201;-86
2021/08/30 06:10:16;;;;;;;;;;;;;;;15.68;100.00;99741.52;1754135;81;20170;-86
2021/08/30 06:12:41;;;;;;;;;;;;;;;15.77;100.00;99736.88;1753954;81;20218;-86
2021/08/30 06:15:08;;;;;;;;;;;;;;;15.82;100.00;99741.56;1755413;81;20472;-86
2021/08/30 06:17:33;;;;;;;;;;;;;;;15.81;100.00;99738.09;1755029;81;22082;-89
2021/08/30 06:20:00;;;;;;;;;;;;;;;15.92;99.92;99736.70;1755409;81;20193;-92
2021/08/30 06:22:26;;;;;;;;;;;;;;;15.93;99.56;99733.02;1759580;81;20122;-96
2021/08/30 06:24:52;;;;;;;;;;;;;;;15.91;99.32;99737.70;1755872;81;20202;-91
2021/08/30 06:27:18;;;;;;;;;;;;;;;15.97;99.46;99742.23;1755334;81;20210;-91
2021/08/30 06:29:44;;;;;;;;;;;;;;;16.03;98.93;99729.95;1756240;81;21143;-90
2021/08/30 06:32:10;;;;;;;;;;;;;;;16.07;98.88;99729.34;1755255;81;20222;-87
2021/08/30 06:34:35;;;;;;;;;;;;;;;16.14;98.98;99723.53;1754904;81;20432;-87
2021/08/30 06:37:03;;;;;;;;;;;;;;;16.25;98.19;99721.27;1754238;81;20148;-88
2021/08/30 06:39:29;;;;;;;;;;;;;;;16.44;97.28;99719.14;1753934;81;20228;-88
2021/08/30 06:41:54;;;;;;;;;;;;;;;16.45;97.70;99720.78;1753587;81;21773;-91
2021/08/30 06:44:21;;;;;;;;;;;;;;;16.54;98.02;99721.38;1728091;81;20190;-87
2021/08/30 06:46:47;;;;;;;;;;;;;;;16.52;98.01;99726.11;1754779;81;20169;-92
2021/08/30 06:49:12;;;;;;;;;;;;;;;16.60;98.21;99729.08;1756690;81;20586;-85
2021/08/30 06:51:38;;;;;;;;;;;;;;;16.64;97.75;99718.29;1756251;81;20170;-94
2021/08/30 06:54:04;;;;;;;;;;;;;;;16.69;97.46;99721.17;1754986;81;20998;-88
2021/08/30 06:56:29;;;;;;;;;;;;;;;16.67;96.50;99717.88;1755235;81;20233;-88
2021/08/30 06:58:55;;;;;;;;;;;;;;;16.73;96.21;99719.72;1756146;81;20150;-91
2021/08/30 07:01:20;;;;;;;;;;;;;;;16.76;95.83;99723.30;1755272;81;20165;-92
2021/08/30 07:03:48;;;;;;;;;;;;;;;16.83;95.65;99718.79;1755426;81;20157;-91
2021/08/30 07:06:13;;;;;;;;;;;;;;;16.76;95.49;99716.64;1755194;81;20153;-90
2021/08/30 07:08:41;;;;;;;;;;;;;;;16.74;95.78;99720.55;1755869;81;20300;-96
2021/08/30 07:11:07;;;;;;;;;;;;;;;16.84;95.38;99716.93;1755707;81;20221;-89
2021/08/30 07:13:32;;;;;;;;;;;;;;;16.79;95.76;99714.89;1755250;81;20415;-93
2021/08/30 07:16:00;;;;;;;;;;;;;;;16.78;96.40;99721.27;1755724;81;20170;-92
2021/08/30 07:18:26;;;;;;;;;;;;;;;16.73;97.21;99727.72;1755398;81;21964;-92
2021/08/30 07:20:52;;;;;;;;;;;;;;;16.73;97.58;99726.38;1755200;81;20210;-88
2021/08/30 07:23:18;;;;;;;;;;;;;;;16.66;97.36;99726.92;1755116;81;20487;-88
2021/08/30 07:25:44;;;;;;;;;;;;;;;16.62;98.83;99726.49;1754885;81;20166;-88
2021/08/30 07:28:09;;;;;;;;;;;;;;;16.59;100.00;99730.09;1755360;81;20178;-93
2021/08/30 07:30:35;;;;;;;;;;;;;;;16.63;100.00;99727.33;1755464;81;21011;-87
2021/08/30 07:33:00;;;;;;;;;;;;;;;16.55;100.00;99722.22;1729582;81;20197;-90
2021/08/30 07:35:27;;;;;;;;;;;;;;;16.61;100.00;99724.03;1755368;81;20174;-91
2021/08/30 07:37:54;;;;;;;;;;;;;;;16.66;100.00;99724.25;1755096;81;20221;-91
2021/08/30 07:40:19;;;;;;;;;;;;;;;16.72;100.00;99722.09;1756196;80;20615;-93
2021/08/30 07:42:45;;;;;;;;;;;;;;;16.71;100.00;99721.78;1736969;81;21171;-88
2021/08/30 07:45:11;;;;;;;;;;;;;;;16.78;100.00;99719.94;1767139;81;20209;-90
2021/08/30 07:47:40;;;;;;;;;;;;;;;16.78;100.00;99715.94;1771489;81;20134;-96
2021/08/30 07:50:06;;;;;;;;;;;;;;;16.70;100.00;99721.46;1768549;81;20177;-96
